FIN1477 EFOU-ESNQ

Flight info

Callsign FIN1477
Flight time 0h 42m
Altitude 28000
Route OTVEM DCT SLU DCT VAGAS
Aircraft A320/M-SDE3FGHIRWY/LB1

Departure

Time 2026-04-27 16:17
Airport Oulu Airport (EFOU)

Arrival

Time 2026-04-27 17:00
Airport Kiruna Airport (ESNQ)
Time Latitude Longitude Altitude Speed Heading
2026-04-27 15:57 64.92785 25.37463 47 ft 0 kts 32°
2026-04-27 16:10 64.92783 25.37460 49 ft 0 kts 32°
2026-04-27 16:11 64.92779 25.37454 48 ft 1 kts 32°
2026-04-27 16:11 64.92765 25.37434 46 ft 1 kts 32°
2026-04-27 16:12 64.92752 25.37414 43 ft 1 kts 32°
2026-04-27 16:12 64.92745 25.37404 44 ft 1 kts 32°
2026-04-27 16:12 64.92743 25.37401 49 ft 0 kts 32°
2026-04-27 16:13 64.92743 25.37402 49 ft 0 kts 36°
2026-04-27 16:13 64.92734 25.37449 47 ft 0 kts 131°
2026-04-27 16:14 64.92713 25.37501 47 ft 7 kts 133°
2026-04-27 16:14 64.92624 25.37747 48 ft 10 kts 121°
2026-04-27 16:15 64.92544 25.37945 48 ft 8 kts 174°
2026-04-27 16:15 64.92472 25.37754 46 ft 12 kts 260°
2026-04-27 16:16 64.92469 25.37609 47 ft 0 kts 290°
2026-04-27 16:16 64.92655 25.36870 48 ft 85 kts 301°
2026-04-27 16:17 64.93499 25.33145 599 ft 150 kts 298°
2026-04-27 16:17 64.94402 25.28483 1819 ft 170 kts 303°
2026-04-27 16:18 64.95563 25.22837 2709 ft 213 kts 303°
2026-04-27 16:18 64.96956 25.15983 4101 ft 245 kts 301°
2026-04-27 16:19 64.97667 25.12283 5117 ft 249 kts 300°
2026-04-27 16:19 64.98377 25.08506 6074 ft 253 kts 299°
2026-04-27 16:20 65.00526 24.96803 8836 ft 265 kts 298°
2026-04-27 16:20 65.01260 24.92773 9738 ft 269 kts 298°
2026-04-27 16:20 65.02813 24.84253 10747 ft 303 kts 297°
2026-04-27 16:21 65.03682 24.79485 10991 ft 327 kts 297°
2026-04-27 16:21 65.06496 24.63859 12847 ft 352 kts 296°
2026-04-27 16:22 65.07457 24.58495 13608 ft 356 kts 296°
2026-04-27 16:22 65.09402 24.47583 14946 ft 363 kts 296°
2026-04-27 16:22 65.10387 24.42035 15609 ft 367 kts 296°
2026-04-27 16:23 65.11379 24.36425 16255 ft 370 kts 295°
2026-04-27 16:23 65.13385 24.25015 17547 ft 378 kts 295°
2026-04-27 16:23 65.14415 24.19252 18174 ft 381 kts 297°
2026-04-27 16:24 65.15527 24.13498 18765 ft 384 kts 298°
2026-04-27 16:24 65.17893 24.01990 19880 ft 390 kts 299°
2026-04-27 16:25 65.20287 23.90312 20949 ft 395 kts 298°
2026-04-27 16:25 65.22667 23.78414 21954 ft 400 kts 298°
2026-04-27 16:26 65.25047 23.66323 22926 ft 405 kts 298°
2026-04-27 16:26 65.27428 23.54137 23799 ft 410 kts 298°
2026-04-27 16:27 65.29853 23.41713 24489 ft 415 kts 300°
2026-04-27 16:27 65.36107 23.28167 25455 ft 412 kts 330°
2026-04-27 16:28 65.41072 23.21089 26079 ft 417 kts 331°
2026-04-27 16:28 65.46085 23.13919 26685 ft 421 kts 330°
2026-04-27 16:29 65.53669 23.02905 27521 ft 428 kts 330°
2026-04-27 16:30 65.58788 22.95451 28030 ft 431 kts 330°
2026-04-27 16:30 65.63919 22.87950 28183 ft 430 kts 330°
2026-04-27 16:31 65.76689 22.69044 28190 ft 430 kts 330°
2026-04-27 16:32 65.84317 22.57672 28198 ft 427 kts 330°
2026-04-27 16:33 65.91908 22.46270 28206 ft 427 kts 330°
2026-04-27 16:33 65.96937 22.38676 28203 ft 428 kts 330°
2026-04-27 16:34 66.02004 22.30996 28200 ft 428 kts 330°
2026-04-27 16:34 66.07064 22.23282 28203 ft 428 kts 330°
2026-04-27 16:35 66.12121 22.15509 28208 ft 428 kts 330°
2026-04-27 16:36 66.18844 22.05168 28199 ft 427 kts 330°
2026-04-27 16:36 66.23874 21.97377 28226 ft 426 kts 330°
2026-04-27 16:37 66.28891 21.89559 28225 ft 426 kts 330°
2026-04-27 16:37 66.33902 21.81725 28222 ft 425 kts 330°
2026-04-27 16:38 66.38903 21.73867 28234 ft 425 kts 330°
2026-04-27 16:38 66.43899 21.65971 28227 ft 425 kts 329°
2026-04-27 16:39 66.48894 21.58048 28220 ft 425 kts 329°
2026-04-27 16:39 66.53854 21.50142 27843 ft 417 kts 329°
2026-04-27 16:39 66.56301 21.46225 26730 ft 419 kts 329°
2026-04-27 16:40 66.58768 21.42268 26111 ft 423 kts 329°
2026-04-27 16:40 66.61253 21.38270 25573 ft 426 kts 329°
2026-04-27 16:40 66.63753 21.34233 25050 ft 428 kts 329°
2026-04-27 16:40 66.66269 21.30160 24504 ft 430 kts 328°
2026-04-27 16:41 66.68793 21.26068 23972 ft 432 kts 328°
2026-04-27 16:41 66.71315 21.21974 23339 ft 430 kts 328°
2026-04-27 16:41 66.73819 21.17905 22672 ft 426 kts 328°
2026-04-27 16:41 66.76302 21.13858 22040 ft 422 kts 328°
2026-04-27 16:42 66.78741 21.09864 21624 ft 410 kts 328°
2026-04-27 16:42 66.81078 21.06019 21429 ft 392 kts 328°
2026-04-27 16:42 66.83311 21.02344 20908 ft 385 kts 328°
2026-04-27 16:42 66.85577 20.98620 20248 ft 381 kts 328°
2026-04-27 16:43 66.87792 20.94974 19653 ft 377 kts 328°
2026-04-27 16:43 66.89957 20.91399 19053 ft 375 kts 328°
2026-04-27 16:43 66.92132 20.87798 18528 ft 371 kts 328°
2026-04-27 16:43 66.94280 20.84223 18097 ft 364 kts 328°
2026-04-27 16:44 66.96377 20.80723 17688 ft 356 kts 328°
2026-04-27 16:44 66.98441 20.77277 17153 ft 353 kts 328°
2026-04-27 16:44 67.00479 20.73874 16640 ft 348 kts 328°
2026-04-27 16:44 67.02501 20.70488 16083 ft 346 kts 328°
2026-04-27 16:45 67.04507 20.67116 15551 ft 343 kts 328°
2026-04-27 16:45 67.06478 20.63717 15037 ft 340 kts 327°
2026-04-27 16:45 67.08413 20.60274 14477 ft 334 kts 327°
2026-04-27 16:45 67.10331 20.56983 13475 ft 329 kts 328°
2026-04-27 16:46 67.12236 20.53791 12487 ft 325 kts 329°
2026-04-27 16:46 67.14116 20.50662 12174 ft 312 kts 329°
2026-04-27 16:46 67.15859 20.47743 12031 ft 285 kts 329°
2026-04-27 16:46 67.17462 20.45036 11806 ft 270 kts 329°
2026-04-27 16:47 67.19012 20.42408 11539 ft 264 kts 329°
2026-04-27 16:47 67.20538 20.39823 11119 ft 260 kts 329°
2026-04-27 16:47 67.22048 20.37266 10523 ft 259 kts 329°
2026-04-27 16:47 67.23553 20.34715 10096 ft 258 kts 329°
2026-04-27 16:48 67.25046 20.32175 9814 ft 257 kts 329°
2026-04-27 16:48 67.26531 20.29634 9503 ft 255 kts 329°
2026-04-27 16:48 67.28011 20.27093 9195 ft 255 kts 329°
2026-04-27 16:49 67.30961 20.22026 8585 ft 254 kts 328°
2026-04-27 16:49 67.32440 20.19549 8286 ft 252 kts 333°
2026-04-27 16:49 67.34034 20.17703 7986 ft 251 kts 343°
2026-04-27 16:49 67.35723 20.16676 7697 ft 249 kts 353°
2026-04-27 16:50 67.37447 20.16478 7404 ft 248 kts
2026-04-27 16:50 67.39160 20.17051 7117 ft 248 kts
2026-04-27 16:50 67.40868 20.17796 6831 ft 248 kts
2026-04-27 16:50 67.42568 20.18531 6567 ft 248 kts
2026-04-27 16:51 67.44260 20.19267 6308 ft 245 kts
2026-04-27 16:51 67.45922 20.19994 6070 ft 245 kts
2026-04-27 16:51 67.47625 20.20740 5825 ft 245 kts
2026-04-27 16:51 67.49280 20.21466 5583 ft 243 kts
2026-04-27 16:52 67.50948 20.22200 5332 ft 242 kts
2026-04-27 16:52 67.52603 20.22927 5103 ft 241 kts
2026-04-27 16:52 67.54274 20.23657 4845 ft 237 kts
2026-04-27 16:52 67.55827 20.24337 4685 ft 224 kts
2026-04-27 16:53 67.57344 20.24955 4571 ft 219 kts
2026-04-27 16:53 67.58846 20.24649 4377 ft 216 kts 346°
2026-04-27 16:53 67.60220 20.23105 4006 ft 216 kts 328°
2026-04-27 16:53 67.61305 20.20514 3892 ft 208 kts 311°
2026-04-27 16:54 67.62099 20.17446 3598 ft 200 kts 307°
2026-04-27 16:54 67.62862 20.14423 3543 ft 199 kts 307°
2026-04-27 16:54 67.63632 20.11386 3777 ft 201 kts 307°
2026-04-27 16:54 67.64504 20.08537 3908 ft 199 kts 324°
2026-04-27 16:55 67.65743 20.07082 3926 ft 194 kts 352°
2026-04-27 16:55 67.67060 20.07392 3926 ft 192 kts 18°
2026-04-27 16:55 67.68217 20.09156 3930 ft 193 kts 30°
2026-04-27 16:55 67.69281 20.11032 3957 ft 171 kts 29°
2026-04-27 16:56 67.70200 20.12657 3920 ft 148 kts 29°
2026-04-27 16:56 67.71018 20.14096 3752 ft 137 kts 28°
2026-04-27 16:56 67.71786 20.15437 3574 ft 129 kts 28°
2026-04-27 16:56 67.72527 20.16725 3401 ft 126 kts 27°
2026-04-27 16:57 67.73253 20.17988 3244 ft 124 kts 27°
2026-04-27 16:57 67.73972 20.19241 3095 ft 124 kts 27°
2026-04-27 16:57 67.74692 20.20495 2951 ft 125 kts 28°
2026-04-27 16:57 67.75417 20.21763 2820 ft 125 kts 28°
2026-04-27 16:58 67.76142 20.23032 2671 ft 124 kts 28°
2026-04-27 16:58 67.76867 20.24304 2542 ft 126 kts 27°
2026-04-27 16:58 67.77587 20.25607 2409 ft 126 kts 28°
2026-04-27 16:58 67.78328 20.26898 2249 ft 128 kts 27°
2026-04-27 16:59 67.79068 20.28213 2031 ft 128 kts 27°
2026-04-27 16:59 67.79811 20.29487 1873 ft 127 kts 26°
2026-04-27 16:59 67.80547 20.30776 1710 ft 127 kts 27°
2026-04-27 16:59 67.81278 20.32060 1513 ft 125 kts 26°
2026-04-27 17:00 67.82281 20.33811 1454 ft 57 kts 34°
2026-04-27 17:00 67.82399 20.33915 1455 ft 8 kts 319°
2026-04-27 17:00 67.82429 20.33805 1455 ft 1 kts 301°
2026-04-27 17:01 67.82433 20.33785 1455 ft 2 kts 301°
2026-04-27 17:01 67.82444 20.33741 1455 ft 4 kts 301°
2026-04-27 17:01 67.82454 20.33695 1454 ft 0 kts 301°
2026-04-27 17:02 67.82455 20.33693 1454 ft 1 kts 301°
2026-04-27 17:02 67.82460 20.33655 1455 ft 3 kts 286°
2026-04-27 17:02 67.82461 20.33568 1455 ft 6 kts 271°
2026-04-27 17:02 67.82490 20.33502 1455 ft 6 kts 13°
2026-04-27 17:03 67.82509 20.33534 1455 ft 0 kts 32°